createdAt,value
2019-03-30T00:51:45.958Z,64.19
2019-03-30T03:11:35.549Z,59.36
2019-03-30T06:23:23.067Z,41.97
2019-03-30T06:28:45.521Z,41.74
2019-03-30T06:34:07.865Z,41.60
2019-03-30T06:52:34.220Z,41.06
2019-03-30T07:24:41.847Z,39.94
2019-03-30T07:56:32.158Z,38.63
2019-03-30T08:01:54.423Z,37.35
2019-03-30T08:14:37.383Z,37.17
2019-03-30T08:21:01.303Z,38.05
2019-03-30T08:45:39.940Z,38.12
2019-03-30T08:51:35.861Z,38.18
2019-03-30T08:57:17.549Z,38.23
2019-03-30T09:15:38.819Z,38.54
2019-03-30T09:21:00.803Z,38.36
2019-03-30T09:26:25.270Z,37.79
2019-03-30T09:31:47.266Z,37.79
2019-03-30T09:37:10.298Z,38.52
2019-03-30T09:42:41.101Z,38.40
2019-03-30T09:48:11.494Z,37.90
2019-03-30T09:53:35.623Z,38.31
2019-03-30T09:58:58.830Z,37.24
2019-03-30T10:04:23.685Z,37.16
2019-03-30T10:09:47.381Z,37.14
2019-03-30T10:15:10.282Z,37.47
2019-03-30T10:20:33.735Z,37.43
2019-03-30T10:26:21.841Z,37.60
2019-03-30T11:18:11.956Z,37.61
2019-03-30T11:43:29.211Z,38.08
2019-03-30T11:48:52.777Z,38.23
2019-03-30T11:54:19.518Z,38.87
2019-03-30T11:59:43.166Z,38.26
2019-03-30T12:05:08.377Z,39.17
2019-03-30T12:10:32.613Z,38.88
2019-03-30T12:15:56.463Z,39.32
2019-03-30T12:21:24.599Z,39.32
2019-03-30T12:26:57.245Z,39.46
2019-03-30T12:32:23.735Z,38.96
2019-03-30T12:37:48.021Z,39.50
2019-03-30T12:43:17.700Z,39.33
2019-03-30T12:48:42.636Z,39.32
2019-03-30T12:54:06.271Z,39.88
2019-03-30T12:59:29.250Z,40.33
2019-03-30T13:04:51.912Z,40.33
2019-03-30T13:10:24.636Z,40.55
2019-03-30T13:15:47.280Z,40.23
2019-03-30T13:21:13.505Z,40.36
2019-03-30T13:26:39.152Z,40.94
2019-03-30T13:32:07.557Z,41.67
2019-03-30T13:37:29.806Z,41.43
2019-03-30T13:42:53.805Z,41.49
2019-03-30T13:48:17.105Z,41.40
2019-03-30T13:53:52.134Z,41.65
2019-03-30T13:59:14.817Z,41.40
2019-03-30T14:05:17.048Z,40.81
2019-03-30T14:10:46.118Z,41.07
2019-03-30T14:16:09.581Z,41.19
2019-03-30T14:22:37.434Z,41.16
2019-03-30T14:39:56.481Z,41.97
2019-03-30T14:45:20.416Z,42.42
2019-03-30T14:50:42.570Z,42.68
2019-03-30T15:02:41.659Z,42.77
2019-03-30T16:01:25.969Z,45.50
2019-03-30T17:46:43.085Z,49.28
2019-03-30T17:59:54.044Z,49.51
2019-03-30T19:05:16.942Z,53.02
